Time;durP1;ratioP1;P1;durP2;ratioP2;P2;SDS_P1;SDS_P2;PMS_P1;PMS_P2;Temp;Humidity;BMP_temperature;BMP_pressure;BME280_temperature;BME280_humidity;BME280_pressure;Samples;Min_cycle;Max_cycle;Signal;HPM_P1;HPM_P2
2023/01/23 00:01:37;;;;;;;;;;;;;;;0.67;100.00;99826.16;4971907;28;19970;-57
2023/01/23 00:04:04;;;;;;;;;;;;;;;0.71;100.00;99822.06;4974140;28;19966;-57
2023/01/23 00:06:29;;;;;;;;;;;;;;;0.72;100.00;99821.28;4984873;28;19962;-56
2023/01/23 00:08:55;;;;;;;;;;;;;;;0.64;100.00;99826.00;4970387;28;19981;-54
2023/01/23 00:11:22;;;;;;;;;;;;;;;0.68;100.00;99827.84;4969186;28;20478;-54
2023/01/23 00:13:47;;;;;;;;;;;;;;;0.70;100.00;99821.22;4970488;28;19949;-57
2023/01/23 00:16:15;;;;;;;;;;;;;;;0.67;100.00;99822.75;4971024;28;20319;-56
2023/01/23 00:18:41;;;;;;;;;;;;;;;0.69;100.00;99827.03;4969416;28;20206;-54
2023/01/23 00:21:07;;;;;;;;;;;;;;;0.68;100.00;99821.97;4969247;28;19953;-56
2023/01/23 00:23:33;;;;;;;;;;;;;;;0.68;100.00;99837.94;4971008;28;20027;-57
2023/01/23 00:26:06;;;;;;;;;;;;;;;0.69;100.00;99837.13;4970568;28;19955;-57
2023/01/23 00:28:35;;;;;;;;;;;;;;;0.69;100.00;99837.13;4984535;28;20081;-56
2023/01/23 00:31:01;;;;;;;;;;;;;;;0.68;100.00;99832.06;4985054;28;19954;-57
2023/01/23 00:33:27;;;;;;;;;;;;;;;0.67;100.00;99836.25;4982941;28;19962;-56
2023/01/23 00:35:54;;;;;;;;;;;;;;;0.66;100.00;99811.78;4984536;28;19952;-56
2023/01/23 00:38:19;;;;;;;;;;;;;;;0.68;100.00;99817.75;4966625;28;19961;-55
2023/01/23 00:40:45;;;;;;;;;;;;;;;0.65;100.00;99807.53;4967978;28;19950;-56
2023/01/23 00:43:10;;;;;;;;;;;;;;;0.63;100.00;99803.25;4969486;28;20501;-56
2023/01/23 00:45:37;;;;;;;;;;;;;;;0.68;100.00;99801.78;4971010;28;20336;-56
2023/01/23 00:48:03;;;;;;;;;;;;;;;0.66;100.00;99814.31;4969998;28;19986;-56
2023/01/23 00:50:28;;;;;;;;;;;;;;;0.62;100.00;99799.88;4969410;28;19954;-56
2023/01/23 00:52:54;;;;;;;;;;;;;;;0.72;100.00;99806.97;4970029;28;19949;-56
2023/01/23 00:55:19;;;;;;;;;;;;;;;0.71;100.00;99805.28;4970254;28;19958;-55
2023/01/23 00:57:44;;;;;;;;;;;;;;;0.62;100.00;99809.09;4983899;28;19956;-57
2023/01/23 01:00:10;;;;;;;;;;;;;;;0.67;100.00;99805.97;4969464;28;19950;-56
2023/01/23 01:02:36;;;;;;;;;;;;;;;0.66;100.00;99809.28;4983501;28;19954;-57
2023/01/23 01:05:01;;;;;;;;;;;;;;;0.68;100.00;99812.69;4971488;28;20094;-57
2023/01/23 01:07:27;;;;;;;;;;;;;;;0.62;100.00;99807.44;4983476;28;19973;-56
2023/01/23 01:09:55;;;;;;;;;;;;;;;0.67;100.00;99817.72;4972724;28;20001;-57
2023/01/23 01:12:22;;;;;;;;;;;;;;;0.65;100.00;99814.25;4969337;28;20456;-54
2023/01/23 01:14:47;;;;;;;;;;;;;;;0.70;100.00;99820.34;4970718;28;19950;-55
2023/01/23 01:17:13;;;;;;;;;;;;;;;0.73;100.00;99826.38;4966838;28;19951;-54
2023/01/23 01:19:39;;;;;;;;;;;;;;;0.70;100.00;99810.25;4967136;28;20031;-56
2023/01/23 01:22:05;;;;;;;;;;;;;;;0.67;100.00;99816.06;4968389;28;19951;-55
2023/01/23 01:24:30;;;;;;;;;;;;;;;0.69;100.00;99827.03;4970299;28;19955;-58
2023/01/23 01:26:56;;;;;;;;;;;;;;;0.72;100.00;99837.25;4980935;28;19975;-56
2023/01/23 01:29:22;;;;;;;;;;;;;;;0.75;100.00;99822.25;4968158;28;19962;-55
2023/01/23 01:31:48;;;;;;;;;;;;;;;0.72;100.00;99832.22;4969420;28;19961;-56
2023/01/23 01:34:13;;;;;;;;;;;;;;;0.76;100.00;99823.97;4970383;28;19996;-57
2023/01/23 01:36:39;;;;;;;;;;;;;;;0.75;100.00;99821.38;4966331;28;20329;-55
2023/01/23 01:39:04;;;;;;;;;;;;;;;0.73;100.00;99816.28;4981804;28;19953;-58
2023/01/23 01:41:30;;;;;;;;;;;;;;;0.72;100.00;99818.75;4984162;28;20320;-57
2023/01/23 01:43:58;;;;;;;;;;;;;;;0.74;100.00;99812.94;4970423;28;19962;-57
2023/01/23 01:46:24;;;;;;;;;;;;;;;0.73;100.00;99815.41;4967976;28;20057;-56
2023/01/23 01:48:52;;;;;;;;;;;;;;;0.74;100.00;99817.13;4976375;28;19966;-55
2023/01/23 01:51:27;;;;;;;;;;;;;;;0.70;100.00;99816.16;4988638;28;20422;-59
2023/01/23 01:54:15;;;;;;;;;;;;;;;0.64;100.00;99805.81;4972458;28;20409;-55
2023/01/23 01:56:51;;;;;;;;;;;;;;;0.68;100.00;99797.56;4971717;28;20003;-57
2023/01/23 01:59:17;;;;;;;;;;;;;;;0.74;100.00;99805.38;4987153;28;19945;-56
2023/01/23 02:01:45;;;;;;;;;;;;;;;0.72;100.00;99801.09;4986011;28;19956;-56
2023/01/23 02:04:10;;;;;;;;;;;;;;;0.74;100.00;99805.38;4971191;28;19981;-57
2023/01/23 02:06:36;;;;;;;;;;;;;;;0.77;100.00;99800.44;4971553;28;20367;-57
2023/01/23 02:09:04;;;;;;;;;;;;;;;0.67;100.00;99782.38;4988269;28;20657;-59
2023/01/23 02:11:30;;;;;;;;;;;;;;;0.66;100.00;99796.66;4974902;28;19951;-58
2023/01/23 02:13:56;;;;;;;;;;;;;;;0.66;100.00;99794.13;4985575;28;19954;-53
2023/01/23 02:16:28;;;;;;;;;;;;;;;0.69;100.00;99774.06;4971664;28;19954;-56
2023/01/23 02:18:57;;;;;;;;;;;;;;;0.72;100.00;99768.28;4971056;28;20040;-55
2023/01/23 02:21:23;;;;;;;;;;;;;;;0.65;100.00;99766.31;4972562;28;19952;-54
2023/01/23 02:23:52;;;;;;;;;;;;;;;0.64;100.00;99775.53;4983440;28;19951;-55
2023/01/23 02:26:28;;;;;;;;;;;;;;;0.69;100.00;99785.81;4971223;28;20039;-56
2023/01/23 02:28:54;;;;;;;;;;;;;;;0.72;100.00;99793.53;4970446;28;19990;-57
2023/01/23 02:31:24;;;;;;;;;;;;;;;0.70;100.00;99778.31;4987445;28;19993;-58
2023/01/23 02:33:51;;;;;;;;;;;;;;;0.79;100.00;99786.22;4972629;28;19959;-56
2023/01/23 02:36:17;;;;;;;;;;;;;;;0.76;100.00;99796.22;4971501;28;19950;-56
2023/01/23 02:38:50;;;;;;;;;;;;;;;0.78;100.00;99794.59;4974905;28;19957;-56
2023/01/23 02:41:21;;;;;;;;;;;;;;;0.85;100.00;99796.53;4987452;28;19940;-56
2023/01/23 02:43:47;;;;;;;;;;;;;;;0.82;100.00;99796.44;4971075;28;19954;-56
2023/01/23 02:46:14;;;;;;;;;;;;;;;0.82;100.00;99806.53;4986820;28;19959;-56
2023/01/23 02:48:42;;;;;;;;;;;;;;;0.87;100.00;99799.13;4986212;28;19976;-61
2023/01/23 02:51:08;;;;;;;;;;;;;;;0.81;100.00;99792.19;4987434;28;19946;-55
2023/01/23 02:53:34;;;;;;;;;;;;;;;0.82;100.00;99803.16;4987806;28;20003;-55
2023/01/23 02:55:59;;;;;;;;;;;;;;;0.83;100.00;99802.34;4971665;28;20570;-54
2023/01/23 03:01:09;;;;;;;;;;;;;;;0.79;100.00;99808.94;4985680;28;19950;-55
2023/01/23 03:03:41;;;;;;;;;;;;;;;0.83;100.00;99815.84;4984857;28;20254;-56
2023/01/23 03:06:06;;;;;;;;;;;;;;;0.79;100.00;99819.03;4973050;28;19950;-56
2023/01/23 03:08:35;;;;;;;;;;;;;;;0.82;100.00;99828.38;4969823;28;20415;-56
2023/01/23 03:11:02;;;;;;;;;;;;;;;0.84;100.00;99832.72;4971636;28;19949;-56
2023/01/23 03:13:28;;;;;;;;;;;;;;;0.81;100.00;99827.53;4972892;28;20015;-56
2023/01/23 03:15:56;;;;;;;;;;;;;;;0.82;100.00;99829.25;4985840;28;19956;-56
2023/01/23 03:18:22;;;;;;;;;;;;;;;0.95;100.00;99827.19;4977122;28;19946;-57
2023/01/23 03:20:47;;;;;;;;;;;;;;;0.93;100.00;99816.19;4982689;28;19950;-56
2023/01/23 03:23:13;;;;;;;;;;;;;;;0.87;100.00;99797.47;4970245;28;20018;-55
2023/01/23 03:25:43;;;;;;;;;;;;;;;0.86;100.00;99798.28;4988506;28;19958;-55
2023/01/23 03:30:11;;;;;;;;;;;;;;;0.90;100.00;99797.59;4971160;28;19982;-57
2023/01/23 03:30:54;;;;;;;;;;;;;;;0.81;100.00;99788.78;4971159;28;19964;-56
2023/01/23 03:33:19;;;;;;;;;;;;;;;0.80;100.00;99803.09;4978837;28;20300;-55
2023/01/23 03:35:45;;;;;;;;;;;;;;;0.87;100.00;99811.75;4987435;28;19953;-56
2023/01/23 03:38:10;;;;;;;;;;;;;;;0.81;100.00;99814.03;4985369;28;19969;-58
2023/01/23 03:43:20;;;;;;;;;;;;;;;0.82;100.00;99805.66;4987382;28;19949;-57
2023/01/23 03:45:47;;;;;;;;;;;;;;;0.79;100.00;99808.94;4987622;28;20379;-56
2023/01/23 03:48:13;;;;;;;;;;;;;;;0.84;100.00;99815.03;4974714;28;20001;-58
2023/01/23 03:50:39;;;;;;;;;;;;;;;0.85;100.00;99796.53;4985097;28;20464;-55
2023/01/23 03:53:04;;;;;;;;;;;;;;;0.81;100.00;99794.72;4971494;28;20408;-55
2023/01/23 03:55:30;;;;;;;;;;;;;;;0.81;100.00;99811.50;4970630;28;20332;-56
2023/01/23 03:57:56;;;;;;;;;;;;;;;0.89;100.00;99807.66;4967910;28;20413;-55
2023/01/23 04:00:25;;;;;;;;;;;;;;;0.83;100.00;99797.31;4983999;28;19956;-56
2023/01/23 04:03:03;;;;;;;;;;;;;;;0.93;100.00;99802.75;4973402;28;19999;-53
2023/01/23 04:05:29;;;;;;;;;;;;;;;0.95;100.00;99814.56;4969386;28;20048;-54
2023/01/23 04:07:54;;;;;;;;;;;;;;;0.99;100.00;99818.94;4983756;28;20020;-57
2023/01/23 04:10:20;;;;;;;;;;;;;;;1.07;100.00;99828.50;4969771;28;20766;-54
2023/01/23 04:12:51;;;;;;;;;;;;;;;0.97;100.00;99823.94;4986353;28;19959;-58
2023/01/23 04:15:17;;;;;;;;;;;;;;;1.03;100.00;99821.63;4984675;28;19986;-58
2023/01/23 04:17:43;;;;;;;;;;;;;;;0.93;100.00;99817.88;4967162;28;19990;-55
2023/01/23 04:20:12;;;;;;;;;;;;;;;0.87;100.00;99811.75;4968294;28;20096;-55
2023/01/23 04:22:39;;;;;;;;;;;;;;;0.91;100.00;99809.41;4974412;28;20043;-54
2023/01/23 04:25:05;;;;;;;;;;;;;;;0.98;100.00;99818.06;4972944;28;20271;-54
2023/01/23 04:27:31;;;;;;;;;;;;;;;0.90;100.00;99822.81;4969589;28;19946;-56
2023/01/23 04:29:57;;;;;;;;;;;;;;;0.87;100.00;99820.19;4985996;28;19951;-55
2023/01/23 04:32:25;;;;;;;;;;;;;;;0.89;100.00;99812.69;4985461;28;20000;-54
2023/01/23 04:34:51;;;;;;;;;;;;;;;0.90;100.00;99807.69;4970443;28;19955;-55
2023/01/23 04:37:17;;;;;;;;;;;;;;;0.96;100.00;99809.59;4984520;28;20065;-55
2023/01/23 04:39:44;;;;;;;;;;;;;;;0.93;100.00;99813.66;4985166;28;19954;-55
2023/01/23 04:42:09;;;;;;;;;;;;;;;0.84;100.00;99799.91;4979268;28;20420;-56
2023/01/23 04:45:00;;;;;;;;;;;;;;;0.81;100.00;99798.91;4974275;28;20583;-53
2023/01/23 04:47:25;;;;;;;;;;;;;;;0.79;100.00;99796.31;4968614;28;19971;-54
2023/01/23 04:49:51;;;;;;;;;;;;;;;0.74;100.00;99791.91;4971350;28;20465;-54
2023/01/23 04:52:17;;;;;;;;;;;;;;;0.75;100.00;99794.50;4982638;28;20065;-55
2023/01/23 04:54:51;;;;;;;;;;;;;;;0.77;100.00;99805.50;4970824;28;20010;-56
2023/01/23 04:57:16;;;;;;;;;;;;;;;0.78;100.00;99799.66;4971988;28;20311;-52
2023/01/23 04:59:43;;;;;;;;;;;;;;;0.72;100.00;99791.81;4984549;28;19998;-56
2023/01/23 05:02:08;;;;;;;;;;;;;;;0.69;100.00;99783.28;4985201;28;19953;-53
2023/01/23 05:04:42;;;;;;;;;;;;;;;0.59;100.00;99786.28;4971294;28;20008;-56
2023/01/23 05:07:11;;;;;;;;;;;;;;;0.56;100.00;99787.00;4969951;28;20026;-54
2023/01/23 05:09:40;;;;;;;;;;;;;;;0.57;100.00;99787.88;4984990;28;20009;-54
2023/01/23 05:12:07;;;;;;;;;;;;;;;0.56;100.00;99768.47;4984746;28;20018;-57
2023/01/23 05:14:36;;;;;;;;;;;;;;;0.50;100.00;99774.16;4984789;28;20298;-55
2023/01/23 05:17:02;;;;;;;;;;;;;;;0.47;100.00;99765.63;4969922;28;20637;-53
2023/01/23 05:19:34;;;;;;;;;;;;;;;0.42;100.00;99770.47;4973420;28;19942;-54
2023/01/23 05:22:05;;;;;;;;;;;;;;;0.40;100.00;99752.75;4972195;28;20027;-57
2023/01/23 05:24:31;;;;;;;;;;;;;;;0.35;100.00;99769.38;4985907;28;19954;-55
2023/01/23 05:26:57;;;;;;;;;;;;;;;0.31;100.00;99774.22;4972711;28;20096;-55
2023/01/23 05:29:24;;;;;;;;;;;;;;;0.28;100.00;99764.88;4988689;28;19952;-53
2023/01/23 05:32:01;;;;;;;;;;;;;;;0.29;100.00;99781.75;4972990;28;19951;-55
2023/01/23 05:34:36;;;;;;;;;;;;;;;0.33;100.00;99786.13;4973514;28;19970;-55
2023/01/23 05:37:05;;;;;;;;;;;;;;;0.37;100.00;99785.44;4973291;28;19948;-56
2023/01/23 05:39:34;;;;;;;;;;;;;;;0.37;100.00;99797.19;4977574;28;20655;-57
2023/01/23 05:42:00;;;;;;;;;;;;;;;0.40;100.00;99800.69;4987372;28;19953;-58
2023/01/23 05:44:25;;;;;;;;;;;;;;;0.39;100.00;99804.00;4973182;28;20381;-57
2023/01/23 05:46:55;;;;;;;;;;;;;;;0.39;100.00;99805.66;4976424;28;19983;-56
2023/01/23 05:49:20;;;;;;;;;;;;;;;0.64;100.00;99808.34;4974417;28;20452;-57
2023/01/23 05:51:46;;;;;;;;;;;;;;;0.69;100.00;99826.19;4987314;28;20001;-59
2023/01/23 05:54:12;;;;;;;;;;;;;;;0.71;100.00;99837.22;4987918;28;20047;-52
2023/01/23 05:56:41;;;;;;;;;;;;;;;0.68;100.00;99848.03;4988077;28;19968;-57
2023/01/23 05:59:25;;;;;;;;;;;;;;;0.67;100.00;99851.38;4974530;28;20503;-57
2023/01/23 06:02:03;;;;;;;;;;;;;;;0.68;100.00;99864.84;4987607;28;19963;-58
2023/01/23 06:04:47;;;;;;;;;;;;;;;0.74;100.00;99868.47;4971753;28;20093;-56
2023/01/23 06:07:22;;;;;;;;;;;;;;;0.80;100.00;99863.69;4985920;28;19953;-55
2023/01/23 06:09:50;;;;;;;;;;;;;;;0.88;100.00;99861.44;4986122;28;20305;-57
2023/01/23 06:12:16;;;;;;;;;;;;;;;0.90;100.00;99864.88;4987093;28;20362;-57
2023/01/23 06:14:42;;;;;;;;;;;;;;;0.98;100.00;99875.31;4968919;28;20624;-61
2023/01/23 06:17:07;;;;;;;;;;;;;;;0.93;100.00;99868.38;4986767;28;20048;-61
2023/01/23 06:19:33;;;;;;;;;;;;;;;1.00;100.00;99882.13;4969828;28;19950;-58
2023/01/23 06:21:59;;;;;;;;;;;;;;;0.98;100.00;99881.19;4972071;28;19953;-56
2023/01/23 06:24:28;;;;;;;;;;;;;;;1.00;100.00;99884.63;4987475;28;19956;-56
2023/01/23 06:26:54;;;;;;;;;;;;;;;1.06;100.00;99891.59;4988059;28;19958;-61
2023/01/23 06:29:21;;;;;;;;;;;;;;;1.02;100.00;99889.75;4985492;28;19953;-60
2023/01/23 06:31:46;;;;;;;;;;;;;;;1.08;100.00;99897.56;4986795;28;20352;-59
2023/01/23 06:34:13;;;;;;;;;;;;;;;1.03;100.00;99899.03;4987167;28;20031;-57
2023/01/23 06:36:43;;;;;;;;;;;;;;;1.00;100.00;99897.25;4988284;28;19948;-59
2023/01/23 06:39:11;;;;;;;;;;;;;;;0.91;100.00;99892.72;4985849;28;20519;-59
2023/01/23 06:41:39;;;;;;;;;;;;;;;0.88;100.00;99892.59;4987286;28;19955;-57
2023/01/23 06:44:06;;;;;;;;;;;;;;;0.82;100.00;99894.88;4986878;28;19961;-56
2023/01/23 06:46:32;;;;;;;;;;;;;;;0.86;100.00;99894.19;4971724;28;19955;-57
2023/01/23 06:48:57;;;;;;;;;;;;;;;0.84;100.00;99905.91;4966018;28;19948;-56
2023/01/23 06:51:23;;;;;;;;;;;;;;;0.89;100.00;99918.72;4983842;28;20040;-59
2023/01/23 06:53:49;;;;;;;;;;;;;;;0.75;100.00;99932.44;4984571;28;19951;-57
2023/01/23 06:56:15;;;;;;;;;;;;;;;0.76;100.00;99926.59;4969694;28;19948;-58
2023/01/23 06:58:42;;;;;;;;;;;;;;;0.67;100.00;99932.13;4985699;28;19964;-54
2023/01/23 07:01:17;;;;;;;;;;;;;;;0.64;100.00;99938.69;4973001;28;19956;-57
2023/01/23 07:04:11;;;;;;;;;;;;;;;0.64;100.00;99942.06;4965481;28;20378;-59
2023/01/23 07:06:38;;;;;;;;;;;;;;;0.67;100.00;99946.41;4985017;28;19952;-58
2023/01/23 07:09:04;;;;;;;;;;;;;;;0.67;100.00;99942.22;4977548;28;20004;-58
2023/01/23 07:11:29;;;;;;;;;;;;;;;0.61;100.00;99941.94;4987222;28;19949;-56
2023/01/23 07:13:55;;;;;;;;;;;;;;;0.57;100.00;99941.75;4970759;28;20038;-56
2023/01/23 07:16:21;;;;;;;;;;;;;;;0.59;100.00;99941.03;4984534;28;20034;-56
2023/01/23 07:18:47;;;;;;;;;;;;;;;0.65;100.00;99936.22;4971787;28;20283;-57
2023/01/23 07:21:12;;;;;;;;;;;;;;;0.61;100.00;99921.75;4982010;28;19983;-54
2023/01/23 07:23:38;;;;;;;;;;;;;;;0.58;100.00;99915.75;4971206;28;19959;-56
2023/01/23 07:26:08;;;;;;;;;;;;;;;0.39;100.00;99914.97;4970402;28;19953;-58
2023/01/23 07:28:34;;;;;;;;;;;;;;;0.37;100.00;99908.16;4985535;28;20042;-58
2023/01/23 07:30:59;;;;;;;;;;;;;;;0.42;100.00;99919.31;4978072;28;19997;-55
2023/01/23 07:33:25;;;;;;;;;;;;;;;0.45;100.00;99920.28;4971842;28;20140;-56
2023/01/23 07:35:50;;;;;;;;;;;;;;;0.47;100.00;99936.31;4969129;28;19959;-58
2023/01/23 07:38:16;;;;;;;;;;;;;;;0.52;100.00;99921.38;4970853;28;20045;-56
2023/01/23 07:40:43;;;;;;;;;;;;;;;0.57;100.00;99914.88;4971039;28;20000;-55
2023/01/23 07:43:08;;;;;;;;;;;;;;;0.53;100.00;99902.94;4970535;28;20525;-60
2023/01/23 07:45:34;;;;;;;;;;;;;;;0.45;100.00;99894.19;4968885;28;19983;-58
2023/01/23 07:48:00;;;;;;;;;;;;;;;0.40;100.00;99893.13;4967455;28;20438;-54
2023/01/23 07:50:25;;;;;;;;;;;;;;;0.40;100.00;99894.00;4971405;28;20328;-57
2023/01/23 07:52:51;;;;;;;;;;;;;;;0.38;100.00;99898.09;4969578;28;20045;-55
2023/01/23 07:55:17;;;;;;;;;;;;;;;0.44;100.00;99905.94;4969557;28;19988;-54
2023/01/23 07:57:43;;;;;;;;;;;;;;;0.49;100.00;99906.13;4970069;28;19972;-57
2023/01/23 08:00:09;;;;;;;;;;;;;;;0.47;100.00;99926.22;4969872;28;20456;-57
2023/01/23 08:02:37;;;;;;;;;;;;;;;0.59;100.00;99930.09;4972377;28;20018;-56
2023/01/23 08:05:03;;;;;;;;;;;;;;;0.65;100.00;99943.81;4968916;28;20332;-57
2023/01/23 08:07:29;;;;;;;;;;;;;;;0.65;100.00;99933.72;4984975;28;20475;-57
2023/01/23 08:09:54;;;;;;;;;;;;;;;0.68;100.00;99946.44;4969591;28;19949;-56
2023/01/23 08:12:20;;;;;;;;;;;;;;;0.65;100.00;99953.03;4969510;28;20382;-58
2023/01/23 08:14:46;;;;;;;;;;;;;;;0.68;100.00;99959.06;4968083;28;20391;-55
2023/01/23 08:17:11;;;;;;;;;;;;;;;0.72;100.00;99965.94;4968233;28;19956;-55
2023/01/23 08:19:37;;;;;;;;;;;;;;;0.78;100.00;99968.75;4970076;28;19955;-56
2023/01/23 08:22:03;;;;;;;;;;;;;;;0.82;100.00;99973.13;4968259;28;19949;-58
2023/01/23 08:24:29;;;;;;;;;;;;;;;0.77;100.00;99968.66;4969721;28;19949;-55
2023/01/23 08:26:54;;;;;;;;;;;;;;;0.81;100.00;99975.56;4969320;28;20004;-56
2023/01/23 08:29:20;;;;;;;;;;;;;;;0.81;100.00;99970.50;4970154;28;20331;-56
2023/01/23 08:31:45;;;;;;;;;;;;;;;0.79;100.00;99962.03;4970182;28;20466;-58
2023/01/23 08:34:11;;;;;;;;;;;;;;;0.75;100.00;99971.16;4969366;28;20775;-57
2023/01/23 08:36:36;;;;;;;;;;;;;;;0.71;100.00;99965.91;4971644;28;20092;-59
2023/01/23 08:39:02;;;;;;;;;;;;;;;0.68;100.00;99971.66;4986881;28;20453;-58
2023/01/23 08:41:27;;;;;;;;;;;;;;;0.69;100.00;99965.84;4968438;28;19951;-58
2023/01/23 08:43:53;;;;;;;;;;;;;;;0.72;100.00;99968.47;4964055;28;20201;-58
2023/01/23 08:46:19;;;;;;;;;;;;;;;0.74;100.00;99961.84;4969055;28;19947;-58
2023/01/23 08:48:44;;;;;;;;;;;;;;;0.66;100.00;99963.19;4977569;28;19952;-57
2023/01/23 08:51:11;;;;;;;;;;;;;;;0.68;100.00;99958.22;4968492;28;20562;-59
2023/01/23 08:53:37;;;;;;;;;;;;;;;0.56;100.00;99963.59;4967294;28;20048;-59
2023/01/23 08:56:04;;;;;;;;;;;;;;;0.53;100.00;99960.09;4964812;28;20092;-60
2023/01/23 08:58:29;;;;;;;;;;;;;;;0.46;100.00;99966.56;4966712;28;19963;-57
2023/01/23 09:00:55;;;;;;;;;;;;;;;0.42;100.00;99965.53;4968961;28;19946;-53
2023/01/23 09:03:20;;;;;;;;;;;;;;;0.33;100.00;99964.31;4969597;28;19984;-52
2023/01/23 09:05:46;;;;;;;;;;;;;;;0.35;100.00;99957.66;4969604;28;20363;-56
2023/01/23 09:08:12;;;;;;;;;;;;;;;0.38;100.00;99951.06;4966237;28;20345;-54
2023/01/23 09:10:37;;;;;;;;;;;;;;;0.44;100.00;99951.34;4967514;28;19943;-53
2023/01/23 09:13:03;;;;;;;;;;;;;;;0.39;100.00;99949.41;4969302;28;19994;-54
2023/01/23 09:15:29;;;;;;;;;;;;;;;0.30;100.00;99946.50;4967558;28;19961;-54
2023/01/23 09:17:54;;;;;;;;;;;;;;;0.36;100.00;99941.72;4966729;28;20055;-54
2023/01/23 09:20:20;;;;;;;;;;;;;;;0.40;100.00;99941.94;4968774;28;20051;-55
2023/01/23 09:22:45;;;;;;;;;;;;;;;0.33;100.00;99942.47;4969202;28;19952;-55
2023/01/23 09:25:11;;;;;;;;;;;;;;;0.31;100.00;99946.56;4968241;28;19958;-56
2023/01/23 09:27:37;;;;;;;;;;;;;;;0.35;100.00;99950.09;4968643;28;19950;-56
2023/01/23 09:30:06;;;;;;;;;;;;;;;0.34;100.00;99949.22;4968829;28;20372;-55
2023/01/23 09:32:31;;;;;;;;;;;;;;;0.35;100.00;99950.94;4965535;28;19986;-55
2023/01/23 09:34:57;;;;;;;;;;;;;;;0.42;100.00;99950.41;4966972;28;19954;-53
2023/01/23 09:37:23;;;;;;;;;;;;;;;0.42;100.00;99949.56;4970938;28;19957;-57
2023/01/23 09:39:48;;;;;;;;;;;;;;;0.52;100.00;99953.31;4969709;28;20406;-56
2023/01/23 09:42:19;;;;;;;;;;;;;;;0.57;100.00;99960.28;4969305;28;19951;-55
2023/01/23 09:44:47;;;;;;;;;;;;;;;0.55;100.00;99961.91;4970363;28;20045;-55
2023/01/23 09:47:25;;;;;;;;;;;;;;;0.63;100.00;99959.69;4966298;28;20488;-56
2023/01/23 09:50:02;;;;;;;;;;;;;;;0.72;100.00;99965.94;4970711;28;19953;-60
2023/01/23 09:52:40;;;;;;;;;;;;;;;0.98;100.00;99969.53;4969178;28;19950;-58
2023/01/23 09:55:12;;;;;;;;;;;;;;;0.96;100.00;99970.28;4969081;28;19951;-56
2023/01/23 09:57:42;;;;;;;;;;;;;;;0.99;100.00;99972.94;4964158;28;20994;-51
2023/01/23 10:00:10;;;;;;;;;;;;;;;1.14;100.00;99966.00;4960273;28;19948;-52
2023/01/23 10:02:36;;;;;;;;;;;;;;;1.09;100.00;99965.81;4978797;28;19958;-52
2023/01/23 10:05:02;;;;;;;;;;;;;;;1.13;100.00;99965.13;4968855;28;20424;-53
2023/01/23 10:07:32;;;;;;;;;;;;;;;1.09;100.00;99973.38;4969003;28;20015;-59
2023/01/23 10:09:57;;;;;;;;;;;;;;;1.09;100.00;99983.47;4968709;28;20097;-51
2023/01/23 10:12:23;;;;;;;;;;;;;;;1.13;100.00;99992.03;4969609;28;20308;-54
2023/01/23 10:15:04;;;;;;;;;;;;;;;1.11;100.00;99981.88;4969857;28;19950;-53
2023/01/23 10:17:32;;;;;;;;;;;;;;;1.16;100.00;99987.09;4968806;28;19992;-54
2023/01/23 10:20:01;;;;;;;;;;;;;;;1.13;100.00;99975.22;4967975;28;19973;-51
2023/01/23 10:22:33;;;;;;;;;;;;;;;1.17;100.00;99981.25;4971044;28;19946;-52
2023/01/23 10:24:59;;;;;;;;;;;;;;;1.11;100.00;99973.41;4982274;28;19955;-53
2023/01/23 10:27:44;;;;;;;;;;;;;;;1.15;100.00;99980.31;4967369;28;19949;-52
2023/01/23 10:30:10;;;;;;;;;;;;;;;1.17;100.00;99966.09;4970966;28;20238;-53
2023/01/23 10:32:44;;;;;;;;;;;;;;;1.08;100.00;99965.72;4971820;28;19948;-51
2023/01/23 10:35:17;;;;;;;;;;;;;;;1.02;100.00;99948.66;4970640;28;19943;-53
2023/01/23 10:37:51;;;;;;;;;;;;;;;1.05;100.00;99945.41;4984668;28;20482;-55
2023/01/23 10:41:12;;;;;;;;;;;;;;;1.13;100.00;99937.34;4970824;28;19940;-51
2023/01/23 10:43:13;;;;;;;;;;;;;;;1.15;100.00;99929.81;4973357;28;19952;-56
2023/01/23 10:45:39;;;;;;;;;;;;;;;1.07;100.00;99923.59;4971708;28;19975;-55
2023/01/23 10:48:31;;;;;;;;;;;;;;;1.04;100.00;99928.53;4974219;28;20472;-54
2023/01/23 10:50:57;;;;;;;;;;;;;;;1.08;100.00;99931.25;4963288;28;20038;-55
2023/01/23 10:53:24;;;;;;;;;;;;;;;1.11;100.00;99921.25;4971392;28;20031;-54
2023/01/23 10:55:50;;;;;;;;;;;;;;;1.22;100.00;99926.75;4977649;28;19959;-52
2023/01/23 10:58:41;;;;;;;;;;;;;;;1.15;100.00;99933.19;4970249;28;19991;-51
2023/01/23 11:01:23;;;;;;;;;;;;;;;1.13;100.00;99931.44;4971259;28;20061;-54
2023/01/23 11:03:49;;;;;;;;;;;;;;;1.27;100.00;99933.66;4971746;28;19952;-55
2023/01/23 11:06:19;;;;;;;;;;;;;;;1.22;100.00;99940.22;4970219;28;19960;-53
2023/01/23 11:08:52;;;;;;;;;;;;;;;1.26;100.00;99938.69;4971812;28;19950;-50
2023/01/23 11:11:22;;;;;;;;;;;;;;;1.21;100.00;99937.63;4986187;28;20042;-51
2023/01/23 11:13:49;;;;;;;;;;;;;;;1.20;100.00;99931.72;4970941;28;19945;-52
2023/01/23 11:16:22;;;;;;;;;;;;;;;1.22;100.00;99936.84;4971224;28;19954;-51
2023/01/23 11:18:53;;;;;;;;;;;;;;;1.21;100.00;99930.06;4971013;28;20042;-57
2023/01/23 11:21:23;;;;;;;;;;;;;;;1.15;100.00;99933.19;4972059;28;19953;-54
2023/01/23 11:23:48;;;;;;;;;;;;;;;1.14;100.00;99925.59;4971695;28;19953;-53
2023/01/23 11:26:30;;;;;;;;;;;;;;;1.20;100.00;99915.69;4971524;28;19949;-54
2023/01/23 11:28:56;;;;;;;;;;;;;;;1.06;100.00;99889.91;4977964;28;19984;-54
2023/01/23 11:31:25;;;;;;;;;;;;;;;1.11;100.00;99880.00;4969672;28;20046;-54
2023/01/23 11:33:52;;;;;;;;;;;;;;;1.05;100.00;99894.91;4968524;28;19996;-52
2023/01/23 11:36:17;;;;;;;;;;;;;;;1.10;100.00;99898.50;4969530;28;19952;-52
2023/01/23 11:39:01;;;;;;;;;;;;;;;1.17;100.00;99886.16;4969956;28;20383;-51
2023/01/23 11:41:28;;;;;;;;;;;;;;;1.07;100.00;99885.72;4970555;28;20423;-50
2023/01/23 11:43:54;;;;;;;;;;;;;;;1.06;100.00;99891.59;4970551;28;20465;-50
2023/01/23 11:46:44;;;;;;;;;;;;;;;1.05;100.00;99888.22;4969240;28;20119;-49
2023/01/23 11:49:12;;;;;;;;;;;;;;;1.14;100.00;99885.19;4969346;28;19993;-50
2023/01/23 11:51:47;;;;;;;;;;;;;;;1.27;100.00;99889.91;4967243;28;20061;-49
2023/01/23 11:54:16;;;;;;;;;;;;;;;1.26;100.00;99886.50;4969958;28;20572;-54
2023/01/23 11:56:57;;;;;;;;;;;;;;;1.35;100.00;99889.38;4970222;28;20436;-53
2023/01/23 11:59:29;;;;;;;;;;;;;;;1.29;100.00;99885.75;4970194;28;19966;-52
2023/01/23 12:01:54;;;;;;;;;;;;;;;1.34;100.00;99889.31;4968412;28;20520;-52
2023/01/23 12:04:35;;;;;;;;;;;;;;;1.28;100.00;99891.59;4965438;28;20025;-54
2023/01/23 12:07:16;;;;;;;;;;;;;;;1.30;100.00;99892.53;4968267;28;20020;-53
2023/01/23 12:09:51;;;;;;;;;;;;;;;1.32;100.00;99885.84;4967300;28;19951;-55
2023/01/23 12:12:43;;;;;;;;;;;;;;;1.22;100.00;99888.84;4963125;28;20283;-53
2023/01/23 12:15:12;;;;;;;;;;;;;;;1.20;100.00;99876.16;4967235;28;19957;-49
2023/01/23 12:17:43;;;;;;;;;;;;;;;1.19;100.00;99879.47;4968142;28;20595;-53
2023/01/23 12:20:24;;;;;;;;;;;;;;;1.15;100.00;99864.16;4967992;28;19956;-51
2023/01/23 12:22:53;;;;;;;;;;;;;;;1.14;100.00;99864.97;4968530;28;19948;-52
2023/01/23 12:25:28;;;;;;;;;;;;;;;1.16;100.00;99861.69;4971148;28;19952;-52
2023/01/23 12:28:11;;;;;;;;;;;;;;;1.18;100.00;99861.75;4971298;28;19949;-53
2023/01/23 12:30:42;;;;;;;;;;;;;;;1.18;100.00;99859.25;4969512;28;19944;-53
2023/01/23 12:33:28;;;;;;;;;;;;;;;1.18;100.00;99862.63;4967856;28;20503;-51
2023/01/23 12:35:54;;;;;;;;;;;;;;;1.19;100.00;99869.38;4969189;28;19946;-53
2023/01/23 12:38:29;;;;;;;;;;;;;;;1.19;100.00;99863.50;4971108;28;20004;-53
2023/01/23 12:40:57;;;;;;;;;;;;;;;1.18;100.00;99856.72;4967746;28;19945;-55
2023/01/23 12:43:41;;;;;;;;;;;;;;;1.21;100.00;99859.34;4966900;28;19944;-53
2023/01/23 12:46:13;;;;;;;;;;;;;;;1.22;100.00;99866.13;4967301;28;19965;-53
2023/01/23 12:48:48;;;;;;;;;;;;;;;1.23;100.00;99867.84;4965084;28;20509;-50
2023/01/23 12:51:17;;;;;;;;;;;;;;;1.23;100.00;99886.38;4968860;28;20012;-53
2023/01/23 12:53:44;;;;;;;;;;;;;;;1.14;100.00;99886.03;4969609;28;19950;-52
2023/01/23 12:56:22;;;;;;;;;;;;;;;1.08;100.00;99877.34;4969029;28;20000;-51
2023/01/23 12:58:55;;;;;;;;;;;;;;;1.06;100.00;99871.41;4968070;28;20042;-53
2023/01/23 13:01:39;;;;;;;;;;;;;;;1.10;100.00;99873.25;4971500;28;19942;-53